Time;durP1;ratioP1;P1;durP2;ratioP2;P2;SDS_P1;SDS_P2;PMS_P1;PMS_P2;Temp;Humidity;BMP_temperature;BMP_pressure;BME280_temperature;BME280_humidity;BME280_pressure;Samples;Min_cycle;Max_cycle;Signal;HPM_P1;HPM_P2
2022/04/01 00:00:33;;;;;;;18.58;11.60;;;3.90;99.90;;;;;;2071522;28;20030;-69
2022/04/01 00:01:33;;;;;;;16.55;11.27;;;3.90;99.90;;;;;;2071435;28;20048;-69
2022/04/01 00:02:35;;;;;;;19.75;11.90;;;3.90;99.90;;;;;;2071223;28;20769;-69
2022/04/01 00:03:36;;;;;;;18.23;10.93;;;3.90;99.90;;;;;;2070880;28;20080;-69
2022/04/01 00:04:39;;;;;;;18.02;11.68;;;3.90;99.90;;;;;;2070769;28;20041;-69
2022/04/01 00:05:40;;;;;;;18.55;11.07;;;3.90;99.90;;;;;;2070872;28;20094;-69
2022/04/01 00:06:41;;;;;;;18.08;11.80;;;3.80;99.90;;;;;;2070933;28;20037;-69
2022/04/01 00:07:42;;;;;;;17.95;11.48;;;3.90;99.90;;;;;;2071326;28;20565;-69
2022/04/01 00:08:42;;;;;;;16.90;11.18;;;3.90;99.90;;;;;;2070998;28;20037;-69
2022/04/01 00:09:43;;;;;;;18.10;11.32;;;3.90;99.90;;;;;;2071587;28;20040;-70
2022/04/01 00:10:44;;;;;;;18.30;11.60;;;3.90;99.90;;;;;;2071613;28;20030;-70
2022/04/01 00:11:44;;;;;;;17.90;11.40;;;3.90;99.90;;;;;;2071622;28;20682;-70
2022/04/01 00:12:46;;;;;;;15.85;10.93;;;3.90;99.90;;;;;;2071684;28;20040;-69
2022/04/01 00:13:46;;;;;;;16.45;11.02;;;3.80;99.90;;;;;;2071406;28;20034;-69
2022/04/01 00:14:47;;;;;;;17.63;11.95;;;3.80;99.90;;;;;;2071456;28;20043;-69
2022/04/01 00:15:48;;;;;;;19.90;11.43;;;3.80;99.90;;;;;;2071553;28;20026;-70
2022/04/01 00:16:48;;;;;;;17.42;10.45;;;3.80;99.90;;;;;;2071602;28;20560;-70
2022/04/01 00:17:49;;;;;;;18.30;11.45;;;3.80;99.90;;;;;;2071602;28;20025;-70
2022/04/01 00:18:50;;;;;;;17.35;10.70;;;3.80;99.90;;;;;;2071806;28;20052;-70
2022/04/01 00:19:50;;;;;;;16.15;11.05;;;3.80;99.90;;;;;;2071501;28;20160;-69
2022/04/01 00:20:51;;;;;;;16.88;11.00;;;3.80;99.90;;;;;;2071924;28;20040;-70
2022/04/01 00:21:52;;;;;;;17.38;11.63;;;3.80;99.90;;;;;;2072047;28;20029;-70
2022/04/01 00:22:53;;;;;;;17.90;11.40;;;3.80;99.90;;;;;;2071826;28;20050;-70
2022/04/01 00:23:54;;;;;;;19.40;11.95;;;3.80;99.90;;;;;;2071585;28;20396;-70
2022/04/01 00:24:55;;;;;;;18.52;11.32;;;3.80;99.90;;;;;;2071641;28;20022;-70
2022/04/01 00:25:55;;;;;;;17.75;11.70;;;3.80;99.90;;;;;;2071753;28;20018;-71
2022/04/01 00:26:56;;;;;;;19.73;11.98;;;3.80;99.90;;;;;;2071715;28;20635;-69
2022/04/01 00:27:57;;;;;;;21.25;12.68;;;3.80;99.90;;;;;;2071767;28;20041;-70
2022/04/01 00:28:57;;;;;;;19.65;11.90;;;3.80;99.90;;;;;;2070591;28;20026;-70
2022/04/01 00:29:58;;;;;;;18.23;11.80;;;3.70;99.90;;;;;;2070943;28;20053;-70
2022/04/01 00:30:58;;;;;;;19.02;11.57;;;3.70;99.90;;;;;;2062723;28;20019;-69
2022/04/01 00:32:00;;;;;;;18.90;12.02;;;3.70;99.90;;;;;;2063149;28;20593;-68
2022/04/01 00:33:01;;;;;;;18.23;11.57;;;3.70;99.90;;;;;;2071480;28;20656;-68
2022/04/01 00:34:16;;;;;;;18.17;11.73;;;3.70;99.90;;;;;;2071392;28;20026;-68
2022/04/01 00:35:17;;;;;;;20.58;11.63;;;3.70;99.90;;;;;;2071455;28;20673;-69
2022/04/01 00:36:18;;;;;;;17.63;11.48;;;3.70;99.90;;;;;;2071088;28;20034;-68
2022/04/01 00:37:19;;;;;;;19.58;12.05;;;3.70;99.90;;;;;;2070700;28;20038;-73
2022/04/01 00:38:19;;;;;;;20.42;11.73;;;3.70;99.90;;;;;;2070514;28;20060;-69
2022/04/01 00:39:21;;;;;;;20.30;12.20;;;3.70;99.90;;;;;;2062591;28;20026;-71
2022/04/01 00:40:23;;;;;;;18.83;12.13;;;3.70;99.90;;;;;;2070657;28;20021;-68
2022/04/01 00:41:23;;;;;;;18.50;12.13;;;3.70;99.90;;;;;;2070855;28;20036;-70
2022/04/01 00:42:26;;;;;;;20.75;12.00;;;3.70;99.90;;;;;;2070802;28;20488;-69
2022/04/01 00:43:32;;;;;;;19.35;12.13;;;3.70;99.90;;;;;;2070606;28;20033;-69
2022/04/01 00:44:36;;;;;;;19.70;12.23;;;3.70;99.90;;;;;;2063069;28;20038;-69
2022/04/01 00:45:38;;;;;;;19.50;12.68;;;3.80;99.90;;;;;;2063070;28;20046;-69
2022/04/01 00:46:42;;;;;;;20.83;12.15;;;3.80;99.90;;;;;;2062750;28;20069;-70
2022/04/01 00:47:43;;;;;;;18.80;12.57;;;3.80;99.90;;;;;;2070769;28;20034;-69
2022/04/01 00:48:44;;;;;;;19.27;12.60;;;3.80;99.90;;;;;;2070965;28;20065;-69
2022/04/01 00:49:46;;;;;;;18.67;12.45;;;3.80;99.90;;;;;;2070705;28;20033;-70
2022/04/01 00:50:48;;;;;;;20.30;12.18;;;3.80;99.90;;;;;;2062608;28;20064;-70
2022/04/01 00:51:50;;;;;;;24.23;15.98;;;3.80;99.90;;;;;;2062945;28;20041;-70
2022/04/01 00:52:52;;;;;;;23.00;14.88;;;3.70;99.90;;;;;;2071321;28;20436;-70
2022/04/01 00:53:53;;;;;;;23.20;14.82;;;3.70;99.90;;;;;;2070648;28;20068;-71
2022/04/01 00:54:54;;;;;;;21.25;13.55;;;3.70;99.90;;;;;;2070824;28;20029;-68
2022/04/01 00:55:55;;;;;;;20.83;13.95;;;3.70;99.90;;;;;;2071324;28;20083;-72
2022/04/01 00:56:56;;;;;;;20.52;13.10;;;3.70;99.90;;;;;;2062198;28;20065;-70
2022/04/01 00:57:57;;;;;;;23.73;14.75;;;3.70;99.90;;;;;;2062597;28;20568;-71
2022/04/01 00:58:58;;;;;;;23.42;13.75;;;3.70;99.90;;;;;;2071002;28;20057;-69
2022/04/01 00:59:59;;;;;;;18.95;12.50;;;3.80;99.90;;;;;;2071156;28;20405;-69
2022/04/01 01:01:00;;;;;;;19.40;12.15;;;3.70;99.90;;;;;;2070598;28;20034;-70
2022/04/01 01:02:01;;;;;;;19.48;12.05;;;3.70;99.90;;;;;;2062715;28;20026;-69
2022/04/01 01:03:04;;;;;;;22.40;13.95;;;3.70;99.90;;;;;;2070681;28;20026;-70
2022/04/01 01:04:08;;;;;;;26.08;16.90;;;3.80;99.90;;;;;;2070473;28;20034;-70
2022/04/01 01:05:09;;;;;;;24.77;15.55;;;3.80;99.90;;;;;;2063137;28;20046;-70
2022/04/01 01:06:11;;;;;;;23.38;15.15;;;3.80;99.90;;;;;;2062674;28;20059;-70
2022/04/01 01:07:13;;;;;;;23.83;13.50;;;3.80;99.90;;;;;;2062594;28;20672;-70
2022/04/01 01:08:15;;;;;;;22.30;13.73;;;3.80;99.90;;;;;;2054235;28;20629;-71
2022/04/01 01:09:17;;;;;;;19.23;12.30;;;3.80;99.90;;;;;;2054775;28;20027;-70
2022/04/01 01:10:19;;;;;;;21.17;12.32;;;3.80;99.90;;;;;;2062510;28;20030;-70
2022/04/01 01:11:21;;;;;;;21.77;12.60;;;3.80;99.90;;;;;;2062527;28;20034;-70
2022/04/01 01:12:23;;;;;;;20.75;12.73;;;3.80;99.90;;;;;;2062840;28;20060;-70
2022/04/01 01:13:25;;;;;;;19.67;12.50;;;3.80;99.90;;;;;;2070745;28;20029;-70
2022/04/01 01:14:30;;;;;;;18.13;12.00;;;3.80;99.90;;;;;;2071088;28;20042;-70
2022/04/01 01:15:31;;;;;;;23.02;13.90;;;3.80;99.90;;;;;;2071496;28;20052;-70
2022/04/01 01:16:31;;;;;;;20.83;12.95;;;3.80;99.90;;;;;;2062516;28;20437;-71
2022/04/01 01:17:32;;;;;;;31.45;18.83;;;3.80;99.90;;;;;;2062587;28;20033;-70
2022/04/01 01:18:34;;;;;;;32.90;19.95;;;3.80;99.90;;;;;;2070300;28;20030;-70
2022/04/01 01:19:34;;;;;;;28.05;18.20;;;3.80;99.90;;;;;;2070709;28;20080;-70
2022/04/01 01:20:35;;;;;;;24.13;14.95;;;3.80;99.90;;;;;;2071264;28;20436;-70
2022/04/01 01:21:37;;;;;;;21.90;13.20;;;3.80;99.90;;;;;;2071464;28;20029;-70
2022/04/01 01:22:38;;;;;;;18.35;12.18;;;3.80;99.90;;;;;;2071292;28;20105;-70
2022/04/01 01:23:39;;;;;;;19.55;12.50;;;3.80;99.90;;;;;;2071209;28;20057;-70
2022/04/01 01:24:41;;;;;;;21.00;13.13;;;3.80;99.90;;;;;;2071241;28;20497;-70
2022/04/01 01:25:42;;;;;;;22.00;13.40;;;3.90;99.90;;;;;;2071230;28;20026;-70
2022/04/01 01:26:48;;;;;;;24.17;14.05;;;3.90;99.90;;;;;;2070573;28;20080;-70
2022/04/01 01:27:49;;;;;;;19.23;13.15;;;3.80;99.90;;;;;;2070835;28;20108;-71
2022/04/01 01:28:50;;;;;;;21.20;13.35;;;3.80;99.90;;;;;;2071117;28;20121;-70
2022/04/01 01:29:50;;;;;;;18.42;12.80;;;3.80;99.90;;;;;;2071325;28;20385;-69
2022/04/01 01:30:51;;;;;;;20.65;13.32;;;3.80;99.90;;;;;;2070392;28;20032;-69
2022/04/01 01:31:54;;;;;;;23.58;13.43;;;3.80;99.90;;;;;;2064313;28;20098;-69
2022/04/01 01:32:55;;;;;;;20.27;12.75;;;3.80;99.90;;;;;;2073381;28;20030;-71
2022/04/01 01:33:58;;;;;;;20.92;13.05;;;3.80;99.90;;;;;;2067606;28;20556;-71
2022/04/01 01:35:03;;;;;;;21.45;13.48;;;3.90;99.90;;;;;;2064833;28;20027;-70
2022/04/01 01:36:04;;;;;;;21.83;13.35;;;3.90;99.90;;;;;;2072022;28;20109;-70
2022/04/01 01:37:05;;;;;;;18.92;12.85;;;3.90;99.90;;;;;;2063936;28;20707;-69
2022/04/01 01:38:05;;;;;;;18.98;12.60;;;3.80;99.90;;;;;;2063593;28;20539;-70
2022/04/01 01:39:06;;;;;;;19.25;12.63;;;3.80;99.90;;;;;;2063876;28;20034;-70
2022/04/01 01:40:08;;;;;;;19.48;12.48;;;3.80;99.90;;;;;;2071988;28;20029;-70
2022/04/01 01:41:09;;;;;;;21.10;12.48;;;3.80;99.90;;;;;;2071799;28;20116;-70
2022/04/01 01:42:10;;;;;;;21.75;12.80;;;3.80;99.90;;;;;;2063755;28;20034;-69
2022/04/01 01:43:11;;;;;;;21.13;13.38;;;3.80;99.90;;;;;;2071928;28;20129;-70
2022/04/01 01:44:13;;;;;;;20.90;12.82;;;3.80;99.90;;;;;;2071789;28;20734;-69
2022/04/01 01:45:15;;;;;;;24.30;13.63;;;3.80;99.90;;;;;;2064160;28;20125;-70
2022/04/01 01:46:18;;;;;;;22.55;13.20;;;3.80;99.90;;;;;;2072129;28;20025;-70
2022/04/01 01:47:18;;;;;;;21.38;13.07;;;3.80;99.90;;;;;;2072071;28;20041;-69
2022/04/01 01:48:21;;;;;;;21.38;12.93;;;3.80;99.90;;;;;;2063789;28;20077;-69
2022/04/01 01:49:22;;;;;;;21.20;12.35;;;3.80;99.90;;;;;;2064302;28;20505;-70
2022/04/01 01:55:40;;;;;;;19.80;11.88;;;3.80;99.90;;;;;;2066294;28;20549;-70
2022/04/01 01:56:42;;;;;;;22.35;12.25;;;3.80;99.90;;;;;;2063726;28;20082;-70
2022/04/01 01:57:44;;;;;;;22.33;12.73;;;3.80;99.90;;;;;;2072043;28;20612;-70
2022/04/01 01:58:44;;;;;;;20.25;11.60;;;3.80;99.90;;;;;;2071607;28;20092;-70
2022/04/01 01:59:45;;;;;;;18.83;11.93;;;3.90;99.90;;;;;;2063687;28;20042;-70
2022/04/01 02:00:45;;;;;;;20.45;12.40;;;3.80;99.90;;;;;;2055428;28;20524;-70
2022/04/01 02:01:46;;;;;;;20.10;11.70;;;3.90;99.90;;;;;;2071836;28;20022;-71
2022/04/01 02:02:47;;;;;;;19.75;11.95;;;3.90;99.90;;;;;;2072270;28;20022;-70
2022/04/01 02:03:49;;;;;;;21.88;12.95;;;3.90;99.90;;;;;;2063588;28;20432;-70
2022/04/01 02:04:50;;;;;;;24.25;14.02;;;3.90;99.90;;;;;;2063902;28;20421;-70
2022/04/01 02:05:51;;;;;;;24.90;13.57;;;3.90;99.90;;;;;;2063681;28;20053;-70
2022/04/01 02:06:51;;;;;;;21.42;12.80;;;3.90;99.90;;;;;;2063720;28;20425;-70
2022/04/01 02:07:53;;;;;;;21.60;12.25;;;3.90;99.90;;;;;;2063653;28;20169;-71
2022/04/01 02:08:54;;;;;;;22.45;12.43;;;3.90;99.90;;;;;;2071672;28;20038;-70
2022/04/01 02:09:55;;;;;;;18.27;11.48;;;3.90;99.90;;;;;;2071746;28;20571;-70
2022/04/01 02:10:56;;;;;;;23.60;12.73;;;3.90;99.90;;;;;;2071714;28;20034;-69
2022/04/01 02:11:58;;;;;;;22.13;12.63;;;3.90;99.90;;;;;;2071455;28;20117;-70
2022/04/01 02:12:59;;;;;;;20.77;12.45;;;3.90;99.90;;;;;;2063761;28;20105;-70
2022/04/01 02:14:00;;;;;;;19.23;12.00;;;3.90;99.90;;;;;;2071532;28;20428;-69
2022/04/01 02:15:02;;;;;;;19.13;11.45;;;3.90;99.90;;;;;;2071740;28;20022;-70
2022/04/01 02:16:03;;;;;;;18.95;10.52;;;3.90;99.90;;;;;;2063926;28;20504;-70
2022/04/01 02:17:05;;;;;;;18.00;11.05;;;3.80;99.90;;;;;;2063737;28;20054;-70
2022/04/01 02:18:05;;;;;;;19.05;11.57;;;3.80;99.90;;;;;;2071526;28;20030;-70
2022/04/01 02:19:09;;;;;;;19.70;11.20;;;3.90;99.90;;;;;;2071631;28;20037;-70
2022/04/01 02:20:10;;;;;;;18.85;10.68;;;3.80;99.90;;;;;;2071470;28;20168;-70
2022/04/01 02:21:11;;;;;;;18.80;11.50;;;3.80;99.90;;;;;;2071700;28;20092;-70
2022/04/01 02:22:12;;;;;;;16.08;9.93;;;3.80;99.90;;;;;;2071677;28;20034;-69
2022/04/01 02:23:14;;;;;;;17.13;10.80;;;3.80;99.90;;;;;;2063705;28;20030;-70
2022/04/01 02:24:17;;;;;;;17.25;10.65;;;3.80;99.90;;;;;;2063497;28;20031;-71
2022/04/01 02:25:19;;;;;;;15.65;10.00;;;3.80;99.90;;;;;;2063876;28;20037;-71
2022/04/01 02:26:20;;;;;;;16.42;10.15;;;3.90;99.90;;;;;;2063449;28;20459;-70
2022/04/01 02:27:21;;;;;;;15.60;9.85;;;3.80;99.90;;;;;;2063435;28;20034;-70
2022/04/01 02:28:22;;;;;;;14.98;9.63;;;3.90;99.90;;;;;;2071330;28;20671;-71
2022/04/01 02:29:24;;;;;;;16.90;9.85;;;3.90;99.90;;;;;;2071572;28;20029;-70
2022/04/01 02:31:06;;;;;;;17.05;9.73;;;3.90;99.90;;;;;;2055126;28;20473;-70
2022/04/01 02:32:26;;;;;;;16.58;9.63;;;3.90;99.90;;;;;;2055163;28;20039;-70
2022/04/01 02:33:44;;;;;;;17.42;10.13;;;4.00;99.90;;;;;;2046959;29;20029;-70
2022/04/01 02:34:47;;;;;;;18.23;9.85;;;3.90;99.90;;;;;;2039036;29;20502;-70
2022/04/01 02:35:47;;;;;;;15.27;8.98;;;4.00;99.90;;;;;;2047041;28;20126;-70
2022/04/01 02:36:49;;;;;;;15.52;9.50;;;4.00;99.90;;;;;;2061543;28;20378;-70
2022/04/01 02:37:50;;;;;;;16.70;9.60;;;4.00;99.90;;;;;;2071629;28;20578;-70
2022/04/01 02:38:53;;;;;;;17.65;9.93;;;4.00;99.90;;;;;;2071140;28;20062;-69
2022/04/01 02:39:54;;;;;;;17.83;9.38;;;4.00;99.90;;;;;;2063393;28;20034;-69
2022/04/01 02:40:58;;;;;;;19.23;9.48;;;4.00;99.90;;;;;;2063361;28;20026;-69
2022/04/01 02:42:03;;;;;;;16.48;9.50;;;4.00;99.90;;;;;;2056469;28;20122;-69
2022/04/01 02:43:04;;;;;;;13.43;8.45;;;4.00;99.90;;;;;;2055848;28;20201;-69
2022/04/01 02:44:09;;;;;;;16.38;8.88;;;4.00;99.90;;;;;;2063497;28;20485;-69
2022/04/01 02:45:11;;;;;;;18.83;9.65;;;4.00;99.90;;;;;;2071417;28;20036;-69
2022/04/01 02:46:12;;;;;;;14.93;8.98;;;4.00;99.90;;;;;;2055386;28;20031;-71
2022/04/01 02:47:25;;;;;;;14.65;9.13;;;4.00;99.90;;;;;;2065948;28;20030;-71
2022/04/01 02:48:27;;;;;;;14.27;8.82;;;4.00;99.90;;;;;;2071105;28;20068;-70
2022/04/01 02:49:57;;;;;;;15.05;9.00;;;4.00;99.90;;;;;;2063380;28;20042;-70
2022/04/01 02:50:57;;;;;;;12.93;8.25;;;4.00;99.90;;;;;;2058854;28;20030;-68
2022/04/01 02:51:58;;;;;;;12.65;8.43;;;4.00;99.90;;;;;;2055420;28;20030;-69
2022/04/01 02:52:59;;;;;;;13.35;8.10;;;3.90;99.90;;;;;;2055404;28;20081;-69
2022/04/01 02:54:00;;;;;;;13.38;7.55;;;3.90;99.90;;;;;;2063449;28;20026;-70
2022/04/01 02:55:00;;;;;;;17.45;8.38;;;3.90;99.70;;;;;;2071648;28;20068;-69
2022/04/01 02:56:02;;;;;;;17.20;8.52;;;3.90;99.30;;;;;;2063169;28;20101;-69
2022/04/01 02:57:03;;;;;;;13.63;8.20;;;3.90;99.10;;;;;;2063174;28;20402;-69
2022/04/01 02:58:08;;;;;;;13.98;8.20;;;3.90;98.70;;;;;;2063106;28;20027;-69
2022/04/01 02:59:09;;;;;;;13.93;7.95;;;3.90;97.80;;;;;;2063868;28;20034;-71
2022/04/01 03:00:21;;;;;;;15.43;8.13;;;3.90;97.80;;;;;;2063236;28;20030;-70
2022/04/01 03:01:29;;;;;;;13.95;7.70;;;3.90;98.20;;;;;;2060041;28;20054;-71
2022/04/01 03:02:29;;;;;;;13.55;7.80;;;3.90;97.70;;;;;;2071220;28;20061;-70
2022/04/01 03:03:31;;;;;;;13.40;7.50;;;3.90;96.50;;;;;;2063325;28;20102;-69
2022/04/01 03:04:33;;;;;;;13.05;7.28;;;3.90;94.20;;;;;;2055852;28;20050;-71
2022/04/01 03:05:37;;;;;;;12.40;7.63;;;4.00;93.70;;;;;;2063311;28;20037;-70
2022/04/01 03:06:44;;;;;;;12.27;7.50;;;4.00;93.00;;;;;;2063628;28;20141;-69
2022/04/01 03:07:45;;;;;;;13.98;7.15;;;4.00;93.10;;;;;;2071327;28;20114;-70
2022/04/01 03:08:48;;;;;;;10.85;7.05;;;4.00;93.20;;;;;;2070754;28;20029;-70
2022/04/01 03:09:49;;;;;;;12.90;7.03;;;4.00;93.00;;;;;;2063145;28;20129;-70
2022/04/01 03:10:55;;;;;;;11.85;7.32;;;3.90;91.90;;;;;;2063288;28;20061;-70
2022/04/01 03:11:56;;;;;;;12.77;7.28;;;3.90;92.70;;;;;;2063167;28;20028;-69
2022/04/01 03:13:19;;;;;;;14.60;7.18;;;3.90;93.60;;;;;;2071237;28;20104;-69
2022/04/01 03:14:39;;;;;;;12.73;6.90;;;3.80;93.00;;;;;;2071660;28;20073;-69
2022/04/01 03:15:58;;;;;;;13.10;7.35;;;3.90;92.20;;;;;;2071853;28;20034;-69
2022/04/01 03:17:24;;;;;;;12.63;7.00;;;3.90;90.30;;;;;;2069262;28;20029;-69
2022/04/01 03:18:25;;;;;;;10.52;6.72;;;3.90;87.80;;;;;;2066354;28;20041;-71
2022/04/01 03:19:28;;;;;;;12.13;6.90;;;3.90;87.60;;;;;;2071169;28;20030;-70
2022/04/01 03:20:29;;;;;;;11.90;7.07;;;3.90;87.80;;;;;;2063417;28;20506;-71
2022/04/01 03:21:31;;;;;;;14.90;7.05;;;3.90;87.20;;;;;;2063229;28;20457;-69
2022/04/01 03:22:31;;;;;;;16.08;7.50;;;3.80;86.10;;;;;;2063196;28;20093;-70
2022/04/01 03:23:32;;;;;;;11.70;7.00;;;3.90;84.20;;;;;;2071117;28;20026;-70
2022/04/01 03:24:34;;;;;;;13.68;6.80;;;3.90;83.20;;;;;;2070902;28;20056;-69
2022/04/01 03:25:35;;;;;;;13.88;7.13;;;4.00;82.00;;;;;;2063326;28;20037;-71
2022/04/01 03:26:49;;;;;;;11.23;7.07;;;4.00;82.10;;;;;;2064783;28;20065;-69
2022/04/01 03:27:52;;;;;;;12.35;6.95;;;4.00;81.90;;;;;;2063158;28;20098;-70
2022/04/01 03:28:52;;;;;;;13.23;7.00;;;4.00;82.70;;;;;;2070940;28;20068;-69
2022/04/01 03:30:00;;;;;;;11.35;6.70;;;3.90;83.10;;;;;;2071162;28;20022;-72
2022/04/01 03:31:03;;;;;;;11.07;6.78;;;3.90;82.40;;;;;;2055186;28;20068;-71
2022/04/01 03:32:07;;;;;;;11.68;6.95;;;3.90;82.60;;;;;;2056986;28;20019;-69
2022/04/01 03:33:09;;;;;;;13.43;7.18;;;3.90;82.90;;;;;;2071090;28;20033;-69
2022/04/01 03:34:10;;;;;;;12.13;7.20;;;4.00;81.90;;;;;;2070968;28;20025;-70
2022/04/01 03:35:14;;;;;;;14.02;7.18;;;4.00;81.30;;;;;;2070919;28;20073;-70
2022/04/01 03:36:15;;;;;;;13.05;7.45;;;4.00;81.70;;;;;;2063425;28;20448;-70
2022/04/01 03:37:22;;;;;;;11.32;7.03;;;4.00;81.90;;;;;;2055408;28;20027;-69
2022/04/01 03:38:23;;;;;;;10.77;7.07;;;4.00;81.70;;;;;;2055275;28;20066;-70
2022/04/01 03:39:25;;;;;;;11.93;7.07;;;3.90;81.50;;;;;;2070950;28;20036;-72
2022/04/01 03:40:31;;;;;;;12.25;7.32;;;3.90;82.00;;;;;;2063541;28;20406;-70
2022/04/01 03:41:33;;;;;;;11.88;7.13;;;3.90;81.70;;;;;;2063002;28;20445;-70
2022/04/01 03:42:35;;;;;;;11.70;7.05;;;3.90;82.60;;;;;;2054984;28;20038;-69
2022/04/01 03:43:36;;;;;;;10.57;6.80;;;3.90;82.30;;;;;;2054909;28;20110;-70
2022/04/01 03:44:41;;;;;;;13.98;7.75;;;3.90;82.00;;;;;;2063159;28;20033;-69
2022/04/01 03:46:06;;;;;;;13.30;7.40;;;3.90;82.00;;;;;;2070998;28;20041;-69
2022/04/01 03:47:14;;;;;;;15.00;7.07;;;3.90;81.90;;;;;;2070987;28;20508;-69
2022/04/01 03:48:25;;;;;;;14.95;7.60;;;3.90;82.70;;;;;;2071625;28;20092;-70
2022/04/01 03:49:31;;;;;;;12.05;7.07;;;3.90;82.80;;;;;;2071057;28;20531;-70
2022/04/01 03:50:33;;;;;;;10.30;6.82;;;3.90;83.30;;;;;;2071063;28;20026;-70
2022/04/01 03:51:38;;;;;;;11.85;7.00;;;3.90;83.40;;;;;;2071096;28;20034;-71
2022/04/01 03:52:39;;;;;;;14.00;7.18;;;3.90;83.40;;;;;;2070928;28;20084;-70
2022/04/01 03:53:43;;;;;;;14.90;7.35;;;3.90;84.10;;;;;;2071989;28;20074;-69
2022/04/01 03:54:52;;;;;;;18.83;7.88;;;3.80;85.50;;;;;;2070406;28;20029;-71
2022/04/01 03:56:21;;;;;;;13.00;7.63;;;3.80;85.40;;;;;;2066154;28;20465;-71
2022/04/01 03:57:41;;;;;;;11.52;7.47;;;3.80;85.30;;;;;;2071558;28;20041;-70
2022/04/01 03:59:03;;;;;;;12.30;7.57;;;3.90;84.70;;;;;;2071442;28;20041;-69
2022/04/01 04:00:36;;;;;;;17.17;7.90;;;3.80;88.10;;;;;;2071487;28;20038;-69
2022/04/01 04:01:38;;;;;;;14.13;7.68;;;3.70;87.90;;;;;;2070816;28;20021;-69
2022/04/01 04:02:41;;;;;;;14.55;7.82;;;3.60;88.50;;;;;;2070968;28;20041;-70
2022/04/01 04:03:48;;;;;;;16.65;7.82;;;3.60;89.10;;;;;;2070959;28;20030;-70
2022/04/01 04:04:50;;;;;;;13.73;7.72;;;3.60;89.10;;;;;;2071053;28;20032;-71
2022/04/01 04:05:51;;;;;;;13.95;7.55;;;3.70;89.20;;;;;;2071468;28;20025;-70
2022/04/01 04:06:52;;;;;;;12.65;7.10;;;3.70;89.00;;;;;;2070708;28;20072;-69
2022/04/01 04:07:55;;;;;;;12.23;7.75;;;3.70;89.50;;;;;;2062572;28;20528;-70
2022/04/01 04:09:03;;;;;;;13.95;7.60;;;3.70;90.10;;;;;;2063000;28;20402;-70
2022/04/01 04:10:06;;;;;;;14.80;8.35;;;3.60;90.30;;;;;;2055210;28;20023;-72
2022/04/01 04:11:16;;;;;;;13.80;7.65;;;3.70;90.40;;;;;;2055460;28;20679;-70
2022/04/01 04:12:30;;;;;;;13.90;7.25;;;3.60;90.50;;;;;;2057195;28;20026;-70
2022/04/01 04:13:41;;;;;;;14.18;7.93;;;3.60;90.60;;;;;;2058802;28;20026;-70
2022/04/01 04:14:51;;;;;;;16.75;7.72;;;3.60;91.20;;;;;;2063141;28;20045;-71
2022/04/01 04:15:58;;;;;;;12.13;7.68;;;3.60;90.90;;;;;;2070901;28;20453;-71
2022/04/01 04:17:17;;;;;;;11.85;7.75;;;3.70;90.70;;;;;;2063700;28;20031;-71
2022/04/01 04:18:19;;;;;;;16.65;8.52;;;3.70;90.70;;;;;;2056859;28;20560;-70
2022/04/01 04:19:58;;;;;;;12.05;7.70;;;3.60;91.40;;;;;;2063004;28;20665;-71
2022/04/01 04:21:10;;;;;;;15.52;7.88;;;3.60;91.40;;;;;;2035282;29;20053;-69
2022/04/01 04:22:14;;;;;;;13.55;7.93;;;3.60;91.70;;;;;;2071059;28;20033;-68
2022/04/01 04:23:55;;;;;;;14.90;8.00;;;3.60;91.80;;;;;;2057900;28;20038;-69
2022/04/01 04:24:58;;;;;;;15.02;8.00;;;3.60;91.80;;;;;;2067812;28;20522;-69
2022/04/01 04:26:04;;;;;;;11.82;7.55;;;3.60;92.10;;;;;;2063127;28;20026;-70
2022/04/01 04:27:12;;;;;;;14.00;8.00;;;3.60;92.20;;;;;;2063611;28;20035;-71
2022/04/01 04:28:24;;;;;;;15.63;7.60;;;3.60;92.00;;;;;;2055286;28;20506;-71
2022/04/01 04:29:33;;;;;;;14.05;7.90;;;3.60;92.10;;;;;;2051014;28;20035;-70
2022/04/01 04:30:52;;;;;;;14.80;7.82;;;3.60;92.20;;;;;;2058760;28;20027;-70
2022/04/01 04:32:14;;;;;;;14.35;7.85;;;3.50;93.30;;;;;;2065534;28;20463;-70
2022/04/01 04:33:17;;;;;;;14.80;7.97;;;3.50;93.90;;;;;;2063395;28;20118;-70
2022/04/01 04:34:20;;;;;;;17.38;8.05;;;3.50;93.50;;;;;;2062822;28;20038;-70
2022/04/01 04:35:21;;;;;;;14.68;8.15;;;3.50;93.90;;;;;;2063058;28;20026;-69
2022/04/01 04:36:38;;;;;;;14.77;8.13;;;3.50;93.40;;;;;;2070884;28;20018;-70
2022/04/01 04:37:47;;;;;;;11.65;7.63;;;3.50;93.70;;;;;;2070854;28;20026;-69
2022/04/01 04:38:54;;;;;;;12.80;7.78;;;3.50;93.80;;;;;;2063951;28;20121;-69
2022/04/01 04:39:55;;;;;;;12.10;7.78;;;3.40;93.70;;;;;;2070753;28;20040;-68
2022/04/01 04:40:57;;;;;;;15.27;8.57;;;3.40;94.20;;;;;;2071471;28;20044;-69
2022/04/01 04:41:58;;;;;;;13.07;8.32;;;3.40;95.60;;;;;;2070470;28;20436;-68
2022/04/01 04:42:59;;;;;;;12.90;7.65;;;3.30;96.00;;;;;;2062533;28;20030;-68
2022/04/01 04:44:01;;;;;;;14.00;8.10;;;3.30;96.00;;;;;;2062629;28;20065;-70
2022/04/01 04:45:04;;;;;;;13.98;8.05;;;3.30;95.80;;;;;;2054685;28;20443;-69
2022/04/01 04:46:06;;;;;;;15.55;7.82;;;3.40;95.70;;;;;;2055248;28;20490;-69
2022/04/01 04:47:07;;;;;;;12.60;8.02;;;3.30;95.50;;;;;;2062753;28;20085;-68
2022/04/01 04:48:10;;;;;;;14.57;8.10;;;3.30;95.60;;;;;;2062310;28;20117;-68
2022/04/01 04:49:12;;;;;;;15.68;7.95;;;3.40;95.90;;;;;;2070785;28;20105;-71
2022/04/01 04:50:13;;;;;;;14.07;8.10;;;3.40;95.80;;;;;;2071148;28;20385;-69
2022/04/01 04:51:21;;;;;;;14.85;7.75;;;3.40;95.70;;;;;;2062442;28;20106;-69
2022/04/01 04:52:44;;;;;;;14.10;7.78;;;3.40;95.70;;;;;;2066231;28;20063;-72
2022/04/01 04:53:45;;;;;;;13.35;7.78;;;3.40;96.70;;;;;;2065456;28;20030;-72
2022/04/01 04:54:46;;;;;;;13.70;7.88;;;3.40;96.70;;;;;;2062536;28;20030;-70
2022/04/01 04:56:02;;;;;;;11.65;8.00;;;3.40;96.70;;;;;;2070743;28;20025;-71
2022/04/01 04:57:06;;;;;;;15.18;8.20;;;3.40;96.70;;;;;;2063321;28;20037;-70
2022/04/01 04:58:10;;;;;;;16.83;8.52;;;3.40;96.90;;;;;;2062385;28;20085;-70
2022/04/01 04:59:20;;;;;;;15.83;8.07;;;3.30;97.40;;;;;;2056752;28;20446;-70
2022/04/01 05:00:21;;;;;;;14.95;8.30;;;3.30;97.80;;;;;;2054569;28;20278;-71
2022/04/01 05:01:55;;;;;;;14.10;8.27;;;3.30;98.50;;;;;;2063711;28;20030;-70
2022/04/01 05:03:38;;;;;;;12.93;8.07;;;3.30;99.40;;;;;;2065811;28;20156;-69
2022/04/01 05:04:58;;;;;;;12.75;8.07;;;3.20;99.90;;;;;;2070639;28;20428;-70
2022/04/01 05:06:01;;;;;;;13.80;8.70;;;3.10;99.90;;;;;;2065001;28;20081;-70
2022/04/01 05:07:25;;;;;;;15.27;8.30;;;3.10;99.90;;;;;;2063341;28;20142;-69
2022/04/01 05:09:15;;;;;;;14.10;8.55;;;2.90;99.90;;;;;;2062132;28;20035;-69
2022/04/01 05:10:35;;;;;;;16.88;8.68;;;2.80;99.90;;;;;;2072039;28;20052;-69
2022/04/01 05:11:48;;;;;;;15.75;8.57;;;2.80;99.90;;;;;;2065389;28;20528;-69
2022/04/01 05:13:09;;;;;;;17.70;9.25;;;2.80;99.90;;;;;;2072247;28;20107;-69
2022/04/01 05:15:05;;;;;;;15.68;8.55;;;2.80;99.90;;;;;;2068760;28;20025;-70
2022/04/01 05:16:15;;;;;;;17.17;8.75;;;2.70;99.90;;;;;;2071290;28;20038;-70
2022/04/01 05:17:43;;;;;;;16.17;9.00;;;2.70;99.90;;;;;;2065302;28;20113;-69
2022/04/01 05:18:54;;;;;;;19.02;9.45;;;2.70;99.90;;;;;;2067125;28;20034;-70
2022/04/01 05:19:58;;;;;;;17.25;8.77;;;2.70;99.90;;;;;;2073224;28;20136;-70
2022/04/01 05:21:02;;;;;;;15.23;9.50;;;2.70;99.90;;;;;;2071771;28;20034;-70
2022/04/01 05:22:08;;;;;;;17.30;9.88;;;2.60;99.90;;;;;;2064607;28;20030;-70
2022/04/01 05:24:00;;;;;;;15.52;9.32;;;2.60;99.90;;;;;;2071904;28;20128;-70
2022/04/01 05:25:02;;;;;;;17.83;9.75;;;2.60;99.90;;;;;;2071841;28;20032;-70
2022/04/01 05:26:23;;;;;;;15.80;9.48;;;2.60;99.90;;;;;;2064059;28;20035;-70
2022/04/01 05:27:47;;;;;;;20.73;9.30;;;2.50;99.90;;;;;;2072562;28;20779;-69
2022/04/01 05:29:01;;;;;;;17.00;9.90;;;2.50;99.90;;;;;;2071545;28;20030;-69
2022/04/01 05:30:16;;;;;;;16.42;9.77;;;2.50;99.90;;;;;;2063779;28;20034;-69
2022/04/01 05:31:46;;;;;;;15.55;9.18;;;2.50;99.90;;;;;;2063402;28;20026;-69
2022/04/01 05:33:06;;;;;;;18.98;9.73;;;2.50;99.90;;;;;;2065976;28;20042;-69
2022/04/01 05:34:20;;;;;;;19.02;9.82;;;2.50;99.90;;;;;;2071836;28;20369;-69
2022/04/01 05:35:25;;;;;;;17.98;9.43;;;2.40;99.90;;;;;;2063862;28;20049;-70
2022/04/01 05:36:28;;;;;;;15.15;9.70;;;2.40;99.90;;;;;;2064430;28;20022;-69
2022/04/01 05:37:31;;;;;;;14.25;9.63;;;2.40;99.90;;;;;;2063884;28;20041;-69
2022/04/01 05:38:35;;;;;;;16.48;9.80;;;2.30;99.90;;;;;;2064219;28;20129;-70
2022/04/01 05:39:39;;;;;;;16.20;9.93;;;2.40;99.90;;;;;;2063808;28;20137;-69
2022/04/01 05:40:43;;;;;;;15.63;9.45;;;2.40;99.90;;;;;;2064871;28;20023;-70
2022/04/01 05:41:46;;;;;;;19.65;10.38;;;2.40;99.90;;;;;;2071762;28;20034;-69
2022/04/01 05:42:50;;;;;;;19.08;10.88;;;2.40;99.90;;;;;;2063700;28;20049;-69
2022/04/01 05:44:17;;;;;;;16.98;9.35;;;2.40;99.90;;;;;;2048849;28;20143;-70
2022/04/01 05:45:19;;;;;;;16.55;9.85;;;2.40;99.90;;;;;;2071653;28;20037;-69